createdAt,value
2023-01-31T00:00:19.245Z,1.40
2023-01-31T00:02:51.808Z,1.40
2023-01-31T00:05:22.445Z,1.40
2023-01-31T00:07:52.527Z,1.40
2023-01-31T00:10:22.472Z,1.40
2023-01-31T00:12:52.435Z,1.40
2023-01-31T00:15:22.595Z,1.30
2023-01-31T00:17:55.252Z,1.40
2023-01-31T00:20:25.252Z,1.30
2023-01-31T00:22:55.236Z,1.30
2023-01-31T00:25:25.312Z,1.20
2023-01-31T00:27:55.643Z,1.20
2023-01-31T00:30:26.433Z,2.60
2023-01-31T00:32:58.944Z,1.20
2023-01-31T00:35:29.074Z,1.20
2023-01-31T00:40:30.369Z,1.20
2023-01-31T00:43:00.318Z,1.10
2023-01-31T00:45:30.275Z,1.20
2023-01-31T00:48:02.767Z,1.30
2023-01-31T00:50:32.800Z,1.20
2023-01-31T00:53:03.099Z,1.40
2023-01-31T00:55:33.177Z,1.20
2023-01-31T00:58:03.183Z,1.20
2023-01-31T01:00:34.547Z,1.10
2023-01-31T01:03:07.726Z,1.20
2023-01-31T01:05:37.707Z,1.10
2023-01-31T01:08:07.781Z,1.10
2023-01-31T01:10:37.812Z,1.20
2023-01-31T01:13:08.412Z,1.20
2023-01-31T01:15:40.737Z,1.20
2023-01-31T01:18:14.671Z,1.10
2023-01-31T01:20:45.760Z,1.10
2023-01-31T01:23:15.714Z,1.10
2023-01-31T01:25:46.638Z,1.00
2023-01-31T01:28:16.597Z,1.10
2023-01-31T01:30:46.471Z,1.00
2023-01-31T01:33:18.947Z,1.00
2023-01-31T01:35:48.957Z,1.00
2023-01-31T01:38:21.265Z,1.10
2023-01-31T01:40:51.254Z,1.10
2023-01-31T01:43:21.145Z,1.00
2023-01-31T01:45:51.412Z,1.00
2023-01-31T01:48:24.282Z,1.00
2023-01-31T01:50:54.678Z,1.00
2023-01-31T01:53:28.404Z,1.00
2023-01-31T01:56:05.295Z,1.00
2023-01-31T01:58:42.774Z,0.90
2023-01-31T02:01:16.811Z,0.80
2023-01-31T02:03:54.143Z,0.90
2023-01-31T02:06:24.862Z,0.80
2023-01-31T02:08:56.026Z,0.70
2023-01-31T02:11:28.396Z,0.80
2023-01-31T02:14:04.675Z,0.80
2023-01-31T02:16:37.553Z,0.70
2023-01-31T02:19:18.834Z,0.80
2023-01-31T02:22:08.129Z,0.70
2023-01-31T02:25:19.745Z,0.70
2023-01-31T02:28:25.510Z,0.80
2023-01-31T02:31:12.508Z,0.70
2023-01-31T02:33:51.609Z,0.70
2023-01-31T02:36:32.452Z,0.80
2023-01-31T02:39:11.952Z,0.80
2023-01-31T02:41:48.283Z,0.80
2023-01-31T02:44:39.061Z,0.70
2023-01-31T02:47:17.750Z,0.60
2023-01-31T02:49:55.806Z,0.70
2023-01-31T02:52:34.332Z,0.80
2023-01-31T02:55:27.362Z,0.70
2023-01-31T02:58:00.487Z,0.80
2023-01-31T03:00:34.499Z,0.80
2023-01-31T03:03:08.637Z,0.80
2023-01-31T03:05:42.846Z,0.80
2023-01-31T03:08:16.415Z,0.70
2023-01-31T03:11:02.601Z,0.70
2023-01-31T03:13:44.986Z,0.70
2023-01-31T03:16:35.758Z,0.70
2023-01-31T03:19:13.990Z,0.60
2023-01-31T03:21:53.086Z,0.50
2023-01-31T03:24:26.301Z,0.50
2023-01-31T03:27:00.268Z,0.50
2023-01-31T03:29:34.431Z,0.40
2023-01-31T03:32:13.381Z,0.40
2023-01-31T03:34:43.753Z,0.40
2023-01-31T03:37:24.149Z,0.40
2023-01-31T03:40:02.819Z,0.40
2023-01-31T03:42:43.494Z,0.40
2023-01-31T03:45:17.220Z,0.40
2023-01-31T03:47:51.751Z,0.50
2023-01-31T03:50:26.733Z,0.50
2023-01-31T03:53:05.358Z,0.30
2023-01-31T03:55:39.761Z,0.50
2023-01-31T03:58:11.562Z,0.40
2023-01-31T04:00:46.083Z,0.40
2023-01-31T04:03:20.894Z,0.40
2023-01-31T04:23:40.775Z,0.40
2023-01-31T04:36:13.299Z,0.50
2023-01-31T04:38:45.827Z,0.50
2023-01-31T05:11:24.734Z,0.70
2023-01-31T05:23:58.559Z,0.40
2023-01-31T05:39:04.983Z,0.60
2023-01-31T05:54:10.184Z,0.60
2023-01-31T06:09:18.043Z,0.60
2023-01-31T06:24:24.076Z,0.40
2023-01-31T07:09:40.805Z,0.50
2023-01-31T07:27:16.736Z,0.50
2023-01-31T08:05:09.634Z,0.80
2023-01-31T08:10:17.297Z,0.90
2023-01-31T08:12:49.431Z,1.00
2023-01-31T08:40:51.235Z,1.10
2023-01-31T08:55:54.995Z,1.10
2023-01-31T09:11:00.395Z,1.20
2023-01-31T09:13:31.312Z,1.20
2023-01-31T09:16:02.964Z,1.30
2023-01-31T09:21:06.908Z,1.30
2023-01-31T09:26:14.314Z,1.30
2023-01-31T09:31:17.167Z,1.30
2023-01-31T09:36:19.785Z,1.30
2023-01-31T09:41:29.888Z,1.30
2023-01-31T09:44:04.433Z,1.30
2023-01-31T09:46:37.874Z,1.30
2023-01-31T09:49:11.027Z,1.30
2023-01-31T09:51:42.430Z,1.30
2023-01-31T09:54:22.458Z,1.40
2023-01-31T09:57:08.505Z,1.40
2023-01-31T09:59:47.259Z,1.50
2023-01-31T10:02:40.068Z,1.60
2023-01-31T10:05:24.555Z,1.60
2023-01-31T10:08:03.468Z,1.60
2023-01-31T10:10:39.757Z,1.60
2023-01-31T10:13:18.347Z,1.70
2023-01-31T10:15:52.059Z,1.80
2023-01-31T10:18:28.205Z,1.80
2023-01-31T10:21:05.323Z,1.90
2023-01-31T10:23:39.690Z,1.90
2023-01-31T10:26:14.688Z,1.90
2023-01-31T10:28:56.107Z,2.00
2023-01-31T10:31:33.061Z,2.00
2023-01-31T10:34:07.446Z,2.10
2023-01-31T10:36:43.240Z,2.20
2023-01-31T10:39:22.427Z,2.20
2023-01-31T10:42:06.430Z,2.20
2023-01-31T10:44:51.653Z,2.20
2023-01-31T10:47:24.541Z,2.20
2023-01-31T10:49:54.623Z,2.50
2023-01-31T10:52:48.755Z,2.40
2023-01-31T10:55:31.890Z,2.60
2023-01-31T10:58:02.286Z,2.50
2023-01-31T11:00:36.569Z,2.60
2023-01-31T11:03:06.665Z,2.70
2023-01-31T11:05:50.317Z,2.70
2023-01-31T11:08:30.930Z,2.60
2023-01-31T11:11:07.131Z,2.60
2023-01-31T11:13:37.144Z,2.60
2023-01-31T11:16:12.901Z,2.60
2023-01-31T11:18:48.802Z,2.50
2023-01-31T11:21:25.813Z,2.40
2023-01-31T11:24:03.556Z,2.40
2023-01-31T11:26:36.465Z,2.50
2023-01-31T11:29:13.306Z,2.50
2023-01-31T11:31:48.004Z,2.50
2023-01-31T11:34:26.043Z,2.60
2023-01-31T11:36:56.063Z,2.70
2023-01-31T11:39:32.219Z,2.80
2023-01-31T11:42:09.347Z,2.80
2023-01-31T11:44:39.340Z,2.90
2023-01-31T11:47:15.727Z,3.00
2023-01-31T11:49:46.264Z,2.90
2023-01-31T11:52:18.380Z,2.80
2023-01-31T11:54:51.619Z,2.70
2023-01-31T11:57:27.329Z,2.60
2023-01-31T12:00:00.909Z,2.40
2023-01-31T12:02:37.834Z,2.70
2023-01-31T12:05:13.369Z,2.70
2023-01-31T12:07:50.208Z,2.60
2023-01-31T12:10:44.102Z,2.50
2023-01-31T12:13:19.508Z,2.40
2023-01-31T12:15:56.456Z,2.30
2023-01-31T12:18:51.442Z,2.20
2023-01-31T12:21:33.777Z,2.10
2023-01-31T12:24:13.595Z,2.10
2023-01-31T12:26:50.410Z,2.00
2023-01-31T12:29:30.844Z,1.90
2023-01-31T12:32:25.969Z,1.80
2023-01-31T12:35:19.762Z,1.80
2023-01-31T12:38:01.333Z,1.80
2023-01-31T12:40:47.384Z,1.70
2023-01-31T12:43:28.766Z,1.70
2023-01-31T12:46:11.550Z,1.60
2023-01-31T12:49:00.862Z,1.70
2023-01-31T12:51:44.926Z,1.70
2023-01-31T12:54:39.297Z,1.60
2023-01-31T12:57:27.291Z,1.60
2023-01-31T13:00:05.667Z,1.70
2023-01-31T13:02:43.490Z,1.50
2023-01-31T13:05:28.410Z,1.50
2023-01-31T13:08:11.241Z,1.60
2023-01-31T13:10:45.012Z,1.60
2023-01-31T13:13:23.620Z,1.60
2023-01-31T13:15:57.966Z,1.60
2023-01-31T13:18:28.122Z,1.60
2023-01-31T13:21:01.230Z,1.60
2023-01-31T13:23:38.402Z,1.60
2023-01-31T13:26:14.614Z,1.60
2023-01-31T13:28:50.119Z,1.60
2023-01-31T13:31:26.006Z,1.70
2023-01-31T13:34:03.024Z,1.60
2023-01-31T13:36:38.311Z,1.60
2023-01-31T13:39:18.453Z,1.60
2023-01-31T13:41:48.558Z,1.50
2023-01-31T13:44:20.784Z,1.60
2023-01-31T13:46:55.458Z,1.60
2023-01-31T13:49:30.323Z,1.50
2023-01-31T13:52:02.415Z,1.50
2023-01-31T13:54:38.687Z,1.60
2023-01-31T13:57:09.254Z,1.50
2023-01-31T13:59:40.997Z,1.50
2023-01-31T14:02:21.097Z,1.60
2023-01-31T14:04:51.153Z,1.50
2023-01-31T14:07:23.897Z,1.60
2023-01-31T14:10:23.954Z,1.60
2023-01-31T14:13:31.275Z,1.60
2023-01-31T14:16:02.320Z,1.50
2023-01-31T14:18:46.103Z,1.60
2023-01-31T14:21:47.392Z,1.70
2023-01-31T14:24:39.603Z,1.70
2023-01-31T14:27:18.590Z,1.70
2023-01-31T14:30:00.374Z,1.70
2023-01-31T14:32:35.881Z,1.70
2023-01-31T14:35:23.936Z,1.70
2023-01-31T14:38:00.224Z,1.70
2023-01-31T14:40:32.767Z,1.60
2023-01-31T14:43:30.753Z,1.70
2023-01-31T14:46:25.402Z,1.80
2023-01-31T14:49:18.223Z,1.80
2023-01-31T14:52:07.310Z,1.80
2023-01-31T14:54:50.653Z,1.80
2023-01-31T14:57:23.575Z,1.80
2023-01-31T14:59:58.677Z,1.80
2023-01-31T15:02:50.125Z,1.80
2023-01-31T15:05:24.352Z,1.80
2023-01-31T15:08:05.465Z,1.90
2023-01-31T15:10:58.212Z,1.90
2023-01-31T15:13:55.730Z,1.90
2023-01-31T15:16:28.354Z,1.90
2023-01-31T15:19:11.091Z,1.90
2023-01-31T15:21:50.482Z,1.90
2023-01-31T15:24:24.454Z,1.90
2023-01-31T15:26:57.003Z,1.90
2023-01-31T15:29:28.944Z,1.90
2023-01-31T15:32:03.565Z,1.90
2023-01-31T15:34:42.746Z,2.00
2023-01-31T15:37:22.853Z,2.00
2023-01-31T15:39:58.411Z,2.00
2023-01-31T15:42:30.736Z,2.00
2023-01-31T15:45:26.164Z,2.10
2023-01-31T15:48:03.648Z,2.00
2023-01-31T15:50:37.303Z,2.10
2023-01-31T15:53:08.717Z,2.00
2023-01-31T15:55:39.627Z,2.10
2023-01-31T15:58:10.522Z,2.10
2023-01-31T16:00:41.395Z,2.00
2023-01-31T16:03:21.371Z,2.10
2023-01-31T16:05:56.520Z,2.00
2023-01-31T16:08:33.947Z,2.30
2023-01-31T16:11:06.328Z,2.00
2023-01-31T16:13:39.278Z,2.00
2023-01-31T16:16:14.105Z,2.10
2023-01-31T16:18:46.465Z,2.00
2023-01-31T16:21:28.667Z,2.10
2023-01-31T16:24:04.177Z,2.10
2023-01-31T16:26:36.898Z,2.10
2023-01-31T16:29:12.038Z,2.00
2023-01-31T16:31:49.534Z,2.00
2023-01-31T16:34:27.829Z,2.20
2023-01-31T16:37:03.436Z,2.10
2023-01-31T16:39:39.441Z,2.10
2023-01-31T16:42:11.648Z,2.10
2023-01-31T16:44:46.771Z,2.20
2023-01-31T16:47:35.430Z,2.10
2023-01-31T16:50:42.884Z,2.00
2023-01-31T16:53:43.119Z,2.10
2023-01-31T16:56:24.467Z,2.10
2023-01-31T16:58:57.404Z,2.10
2023-01-31T17:01:30.463Z,2.00
2023-01-31T17:04:15.508Z,2.00
2023-01-31T17:06:45.992Z,2.10
2023-01-31T17:09:23.169Z,2.10
2023-01-31T17:11:53.392Z,2.00
2023-01-31T17:14:23.517Z,2.10
2023-01-31T17:16:53.727Z,2.00
2023-01-31T17:21:54.257Z,2.10
2023-01-31T17:24:26.883Z,2.00
2023-01-31T17:29:27.525Z,2.20
2023-01-31T17:31:57.612Z,2.20
2023-01-31T17:36:57.919Z,2.20
2023-01-31T17:39:30.582Z,2.20
2023-01-31T17:44:30.886Z,2.40
2023-01-31T17:47:01.058Z,2.40
2023-01-31T17:52:02.152Z,2.30
2023-01-31T17:54:34.744Z,2.30
2023-01-31T17:57:04.651Z,2.30
2023-01-31T18:02:05.157Z,2.20
2023-01-31T18:09:38.665Z,2.10
2023-01-31T18:12:08.978Z,2.30
2023-01-31T18:14:38.987Z,2.30
2023-01-31T18:17:08.997Z,2.50
2023-01-31T18:19:39.253Z,2.30
2023-01-31T18:22:09.167Z,2.30
2023-01-31T18:24:41.761Z,2.30
2023-01-31T18:29:42.443Z,2.10
2023-01-31T18:32:12.514Z,2.20
2023-01-31T18:34:42.642Z,2.30
2023-01-31T18:37:20.008Z,2.20
2023-01-31T18:39:54.189Z,2.20
2023-01-31T18:42:24.579Z,2.20
2023-01-31T18:44:54.550Z,2.20
2023-01-31T18:47:24.481Z,2.40
2023-01-31T18:49:54.423Z,2.20
2023-01-31T18:52:24.322Z,2.30
2023-01-31T18:54:56.872Z,2.40
2023-01-31T18:57:26.772Z,2.30
2023-01-31T19:02:26.951Z,2.40
2023-01-31T19:04:57.074Z,2.60
2023-01-31T19:07:27.154Z,2.20
2023-01-31T19:09:59.670Z,2.30
2023-01-31T19:12:29.749Z,2.40
2023-01-31T19:14:59.677Z,2.50
2023-01-31T19:19:59.749Z,2.40
2023-01-31T19:22:30.407Z,2.40
2023-01-31T19:25:05.654Z,2.40
2023-01-31T19:27:35.904Z,2.60
2023-01-31T19:37:37.006Z,2.50
2023-01-31T19:40:10.923Z,2.40
2023-01-31T19:45:24.393Z,2.40
2023-01-31T19:50:27.999Z,2.50
2023-01-31T19:55:30.818Z,2.30
2023-01-31T19:58:00.948Z,2.50
2023-01-31T20:00:30.959Z,2.40
2023-01-31T20:03:00.853Z,2.40
2023-01-31T20:08:00.980Z,2.50
2023-01-31T20:10:33.781Z,2.40
2023-01-31T20:13:04.159Z,2.30
2023-01-31T20:25:38.729Z,2.40
2023-01-31T20:28:08.651Z,2.60
2023-01-31T20:30:38.617Z,2.40
2023-01-31T20:33:08.620Z,2.30
2023-01-31T20:38:09.896Z,2.50
2023-01-31T20:40:45.178Z,2.40
2023-01-31T20:48:16.629Z,2.50
2023-01-31T20:50:47.119Z,2.50
2023-01-31T20:53:21.198Z,2.50
2023-01-31T20:56:00.860Z,2.30
2023-01-31T20:58:33.329Z,2.50
2023-01-31T21:01:06.335Z,2.60
2023-01-31T21:03:37.406Z,2.60
2023-01-31T21:06:08.472Z,2.60
2023-01-31T21:08:40.086Z,2.60
2023-01-31T21:11:15.728Z,2.60
2023-01-31T21:16:16.965Z,2.50
2023-01-31T21:18:47.156Z,2.50
2023-01-31T21:21:23.493Z,2.50
2023-01-31T21:26:28.369Z,2.60
2023-01-31T21:28:58.343Z,2.50
2023-01-31T21:31:28.390Z,2.40
2023-01-31T21:34:04.694Z,2.50
2023-01-31T21:36:36.347Z,2.40
2023-01-31T21:39:06.611Z,2.40
2023-01-31T21:41:51.611Z,2.30
2023-01-31T21:51:52.969Z,2.30
2023-01-31T21:54:22.870Z,2.30
2023-01-31T21:56:55.904Z,2.30
2023-01-31T22:04:26.621Z,2.20
2023-01-31T22:09:27.004Z,2.40
2023-01-31T22:11:59.524Z,2.40
2023-01-31T22:14:29.518Z,2.30
2023-01-31T22:16:59.433Z,2.40
2023-01-31T22:19:29.339Z,2.40
2023-01-31T22:21:59.279Z,2.40
2023-01-31T22:24:29.370Z,2.40
2023-01-31T22:27:01.888Z,2.40
2023-01-31T22:29:31.945Z,2.40
2023-01-31T22:32:01.929Z,2.40
2023-01-31T22:34:32.139Z,2.40
2023-01-31T22:37:02.216Z,2.40
2023-01-31T22:39:32.192Z,2.40
2023-01-31T22:42:04.757Z,2.40
2023-01-31T22:44:34.745Z,2.40
2023-01-31T22:47:04.652Z,2.50
2023-01-31T22:49:34.605Z,2.50
2023-01-31T22:52:04.505Z,2.50
2023-01-31T22:54:34.428Z,2.50
2023-01-31T22:57:07.306Z,2.50
2023-01-31T22:59:37.291Z,2.60
2023-01-31T23:02:07.248Z,2.50
2023-01-31T23:04:37.325Z,2.50
2023-01-31T23:07:07.386Z,2.60
2023-01-31T23:09:37.326Z,2.60
2023-01-31T23:12:10.312Z,2.60
2023-01-31T23:14:41.357Z,2.60
2023-01-31T23:17:25.239Z,2.60
2023-01-31T23:19:55.381Z,2.60
2023-01-31T23:22:25.356Z,3.00
2023-01-31T23:24:55.325Z,2.60
2023-01-31T23:27:27.867Z,2.60
2023-01-31T23:29:57.967Z,2.50
2023-01-31T23:32:28.470Z,2.50
2023-01-31T23:34:58.606Z,4.50
2023-01-31T23:37:28.618Z,2.50
2023-01-31T23:39:58.608Z,2.50
2023-01-31T23:42:31.480Z,2.50
2023-01-31T23:45:01.587Z,2.50
2023-01-31T23:47:31.687Z,2.50
2023-01-31T23:50:01.786Z,2.60
2023-01-31T23:52:31.841Z,2.50
2023-01-31T23:55:01.750Z,2.40
2023-01-31T23:57:34.444Z,2.40
